Time;durP1;ratioP1;P1;durP2;ratioP2;P2;SDS_P1;SDS_P2;PMS_P1;PMS_P2;Temp;Humidity;BMP_temperature;BMP_pressure;BME280_temperature;BME280_humidity;BME280_pressure;Samples;Min_cycle;Max_cycle;Signal;HPM_P1;HPM_P2
2021/12/23 00:01:41;;;;;;;9.87;9.57;;;-3.60;99.90;;;;;;5121420;27;20241;-79
2021/12/23 00:04:10;;;;;;;10.07;9.77;;;-3.60;99.90;;;;;;5122702;27;20246;-79
2021/12/23 00:06:39;;;;;;;9.93;9.63;;;-3.60;99.90;;;;;;5108406;28;20233;-79
2021/12/23 00:09:07;;;;;;;9.50;9.20;;;-3.60;99.90;;;;;;5102516;28;20225;-79
2021/12/23 00:11:36;;;;;;;9.50;9.20;;;-3.60;99.90;;;;;;5101701;28;20237;-80
2021/12/23 00:14:06;;;;;;;9.80;9.50;;;-3.60;99.90;;;;;;5093460;28;20226;-80
2021/12/23 00:16:44;;;;;;;9.67;9.37;;;-3.60;99.90;;;;;;5100969;28;20230;-79
2021/12/23 00:19:22;;;;;;;9.27;8.97;;;-3.60;99.90;;;;;;5101794;28;20236;-79
2021/12/23 00:24:35;;;;;;;9.70;9.40;;;-3.60;99.90;;;;;;5101390;28;20221;-79
2021/12/23 00:27:05;;;;;;;10.00;9.70;;;-3.60;99.90;;;;;;5100723;28;20252;-79
2021/12/23 00:29:34;;;;;;;9.50;9.20;;;-3.60;99.90;;;;;;5098816;28;20754;-77
2021/12/23 00:32:04;;;;;;;9.50;9.20;;;-3.60;99.90;;;;;;5098874;28;20225;-80
2021/12/23 00:34:31;;;;;;;9.80;9.50;;;-3.60;99.90;;;;;;5099131;28;20213;-78
2021/12/23 00:37:00;;;;;;;9.77;9.47;;;-3.60;99.90;;;;;;5100006;28;20230;-78
2021/12/23 00:39:30;;;;;;;9.43;9.13;;;-3.60;99.90;;;;;;5100247;28;20235;-78
2021/12/23 00:42:06;;;;;;;9.27;8.97;;;-3.60;99.90;;;;;;5099632;28;20229;-78
2021/12/23 00:44:39;;;;;;;9.20;8.90;;;-3.60;99.90;;;;;;5100030;28;20221;-78
2021/12/23 00:47:08;;;;;;;9.30;9.00;;;-3.50;99.90;;;;;;5099805;28;20233;-77
2021/12/23 00:49:39;;;;;;;9.07;8.80;;;-3.50;99.90;;;;;;5099447;28;20226;-80
2021/12/23 00:52:12;;;;;;;9.33;9.03;;;-3.40;99.90;;;;;;5099748;28;20272;-78
2021/12/23 00:54:43;;;;;;;9.03;8.80;;;-3.40;99.90;;;;;;5099830;28;20273;-79
2021/12/23 00:57:24;;;;;;;9.33;9.03;;;-3.40;99.90;;;;;;5100791;28;20229;-79
2021/12/23 00:59:54;;;;;;;9.00;8.80;;;-3.30;99.90;;;;;;5100397;28;20233;-78
2021/12/23 01:02:26;;;;;;;9.20;8.90;;;-3.40;99.90;;;;;;5100157;28;20704;-79
2021/12/23 01:04:54;;;;;;;9.40;9.10;;;-3.50;99.90;;;;;;5100025;28;20283;-79
2021/12/23 01:07:22;;;;;;;9.70;9.40;;;-3.50;99.90;;;;;;5100571;28;20252;-79
2021/12/23 01:09:50;;;;;;;9.33;9.03;;;-3.40;99.90;;;;;;5101527;28;20225;-78
2021/12/23 01:12:28;;;;;;;9.37;9.07;;;-3.50;99.90;;;;;;5099614;28;20237;-79
2021/12/23 01:15:09;;;;;;;10.07;9.77;;;-3.50;99.90;;;;;;5100485;28;20233;-79
2021/12/23 01:17:53;;;;;;;9.90;9.60;;;-3.50;99.90;;;;;;5100258;28;20233;-79
2021/12/23 01:20:26;;;;;;;9.37;9.07;;;-3.60;99.90;;;;;;5099302;28;20326;-79
2021/12/23 01:22:55;;;;;;;9.57;9.27;;;-3.60;99.90;;;;;;5100018;28;20281;-78
2021/12/23 01:25:23;;;;;;;9.30;9.00;;;-3.60;99.90;;;;;;5099234;28;20225;-79
2021/12/23 01:27:51;;;;;;;9.80;9.50;;;-3.60;99.90;;;;;;5099000;28;20226;-79
2021/12/23 01:30:21;;;;;;;9.60;9.30;;;-3.60;99.90;;;;;;5101516;28;20228;-78
2021/12/23 01:32:51;;;;;;;9.60;9.30;;;-3.70;99.90;;;;;;5109680;28;20233;-78
2021/12/23 01:35:20;;;;;;;9.80;9.50;;;-3.70;99.90;;;;;;5102503;28;20236;-79
2021/12/23 01:37:48;;;;;;;10.00;9.70;;;-3.70;99.90;;;;;;5100688;28;20290;-78
2021/12/23 01:40:19;;;;;;;10.10;9.80;;;-3.80;99.90;;;;;;5100418;28;20240;-79
2021/12/23 01:42:47;;;;;;;9.80;9.50;;;-3.80;99.90;;;;;;5100461;28;20229;-78
2021/12/23 01:45:21;;;;;;;10.00;9.70;;;-3.80;99.90;;;;;;5100005;28;20230;-79
2021/12/23 01:47:49;;;;;;;9.77;9.47;;;-3.80;99.90;;;;;;5100115;28;20224;-79
2021/12/23 01:50:20;;;;;;;9.67;9.37;;;-3.90;99.90;;;;;;5099849;28;20283;-79
2021/12/23 01:52:48;;;;;;;9.90;9.60;;;-3.90;99.90;;;;;;5099772;28;20218;-79
2021/12/23 01:55:16;;;;;;;9.63;9.33;;;-3.90;99.90;;;;;;5099761;28;20292;-79
2021/12/23 01:57:44;;;;;;;9.60;9.30;;;-3.90;99.90;;;;;;5100991;28;20320;-79
2021/12/23 02:00:16;;;;;;;9.40;9.10;;;-3.90;99.90;;;;;;5107295;28;20259;-79
2021/12/23 02:02:46;;;;;;;9.50;9.20;;;-3.90;99.90;;;;;;5106668;28;20247;-79
2021/12/23 02:05:17;;;;;;;9.40;9.10;;;-3.90;99.90;;;;;;5103954;28;20229;-79
2021/12/23 02:07:44;;;;;;;9.53;9.23;;;-3.90;99.90;;;;;;5103611;28;20229;-79
2021/12/23 02:10:13;;;;;;;9.50;9.20;;;-3.90;99.90;;;;;;5101370;28;20233;-79
2021/12/23 02:12:44;;;;;;;9.70;9.40;;;-3.90;99.90;;;;;;5100256;28;20288;-79
2021/12/23 02:15:12;;;;;;;9.90;9.60;;;-3.90;99.90;;;;;;5104979;28;20225;-79
2021/12/23 02:17:40;;;;;;;9.60;9.30;;;-3.90;99.90;;;;;;5105065;28;20263;-79
2021/12/23 02:20:12;;;;;;;9.60;9.30;;;-3.90;99.90;;;;;;5102424;28;20236;-79
2021/12/23 02:22:41;;;;;;;9.70;9.40;;;-3.90;99.90;;;;;;5144044;22;20224;-83
2021/12/23 02:25:11;;;;;;;9.93;9.63;;;-3.90;99.90;;;;;;5124430;28;20217;-83
2021/12/23 02:27:39;;;;;;;9.90;9.60;;;-3.90;99.90;;;;;;5126391;27;20236;-83
2021/12/23 02:30:11;;;;;;;9.77;9.47;;;-3.90;99.90;;;;;;5128763;28;20262;-83
2021/12/23 02:32:40;;;;;;;9.70;9.40;;;-3.90;99.90;;;;;;5112144;28;20287;-83
2021/12/23 02:35:14;;;;;;;9.90;9.60;;;-3.80;99.90;;;;;;5107288;28;20232;-84
2021/12/23 02:37:44;;;;;;;9.70;9.40;;;-3.80;99.90;;;;;;5107372;28;20228;-84
2021/12/23 02:40:22;;;;;;;10.20;9.90;;;-3.80;99.90;;;;;;5108090;28;20225;-83
2021/12/23 02:42:50;;;;;;;9.83;9.53;;;-3.90;99.90;;;;;;5106986;28;20406;-83
2021/12/23 02:45:18;;;;;;;9.60;9.30;;;-3.90;99.90;;;;;;5106515;28;20287;-83
2021/12/23 02:47:45;;;;;;;10.10;9.80;;;-3.90;99.90;;;;;;5112538;28;20290;-83
2021/12/23 02:50:15;;;;;;;10.10;9.80;;;-4.00;99.90;;;;;;5110600;28;20233;-83
2021/12/23 02:52:42;;;;;;;10.07;9.77;;;-4.00;99.90;;;;;;5110215;28;20252;-85
2021/12/23 02:55:10;;;;;;;9.53;9.23;;;-4.00;99.90;;;;;;5111441;28;20236;-83
2021/12/23 02:57:38;;;;;;;9.47;9.17;;;-4.00;99.90;;;;;;5104755;28;20233;-82
2021/12/23 03:00:09;;;;;;;9.90;9.60;;;-4.10;99.90;;;;;;5104754;28;20239;-83
2021/12/23 03:02:39;;;;;;;9.70;9.40;;;-4.10;99.90;;;;;;5107173;28;20233;-83
2021/12/23 03:05:09;;;;;;;9.77;9.47;;;-4.00;99.90;;;;;;5117818;28;20271;-83
2021/12/23 03:07:38;;;;;;;9.73;9.43;;;-4.00;99.90;;;;;;5110476;28;20232;-82
2021/12/23 03:10:09;;;;;;;9.77;9.47;;;-4.00;99.90;;;;;;5108732;28;20230;-83
2021/12/23 03:12:37;;;;;;;9.60;9.30;;;-4.00;99.90;;;;;;5107670;28;20256;-83
2021/12/23 03:15:07;;;;;;;9.83;9.53;;;-4.10;99.90;;;;;;5107294;28;20237;-83
2021/12/23 03:17:35;;;;;;;9.53;9.23;;;-4.10;99.90;;;;;;5107286;28;20235;-83
2021/12/23 03:20:04;;;;;;;9.53;9.23;;;-4.10;99.90;;;;;;5108278;28;20257;-82
2021/12/23 03:22:32;;;;;;;9.63;9.33;;;-4.10;99.90;;;;;;5106033;28;20246;-83
2021/12/23 03:25:02;;;;;;;9.73;9.43;;;-4.10;99.90;;;;;;5106960;28;20207;-83
2021/12/23 03:27:30;;;;;;;9.90;9.60;;;-4.10;99.90;;;;;;5106295;28;20234;-83
2021/12/23 03:29:58;;;;;;;9.30;9.00;;;-4.10;99.90;;;;;;5107634;28;20240;-83
2021/12/23 03:32:26;;;;;;;9.53;9.23;;;-4.00;99.90;;;;;;5121082;28;20259;-83
2021/12/23 03:34:54;;;;;;;9.13;8.83;;;-4.00;99.90;;;;;;5105916;28;20221;-83
2021/12/23 03:37:21;;;;;;;9.60;9.30;;;-4.00;99.90;;;;;;5101801;28;20237;-84
2021/12/23 03:39:51;;;;;;;9.80;9.50;;;-4.00;99.90;;;;;;5101322;28;20233;-84
2021/12/23 03:42:20;;;;;;;9.33;9.03;;;-4.00;99.90;;;;;;5102381;28;20286;-83
2021/12/23 03:44:48;;;;;;;9.07;8.77;;;-4.00;99.90;;;;;;5102354;28;20210;-84
2021/12/23 03:47:16;;;;;;;9.90;9.60;;;-4.00;99.90;;;;;;5102979;28;20286;-84
2021/12/23 03:49:43;;;;;;;9.50;9.20;;;-3.90;99.90;;;;;;5103561;28;20228;-84
2021/12/23 03:52:11;;;;;;;9.40;9.10;;;-3.90;99.90;;;;;;5102633;28;20233;-84
2021/12/23 03:54:39;;;;;;;9.53;9.23;;;-3.80;99.90;;;;;;5103240;28;20233;-85
2021/12/23 03:57:07;;;;;;;10.00;9.70;;;-3.80;99.90;;;;;;5103936;28;20237;-83
2021/12/23 03:59:36;;;;;;;9.47;9.17;;;-3.80;99.90;;;;;;5104001;28;20229;-83
2021/12/23 04:02:05;;;;;;;9.97;9.67;;;-3.80;99.90;;;;;;5104666;28;20233;-83
2021/12/23 04:04:33;;;;;;;9.83;9.53;;;-3.80;99.90;;;;;;5105710;28;20279;-83
2021/12/23 04:07:00;;;;;;;9.70;9.40;;;-3.80;99.90;;;;;;5105611;28;20740;-83
2021/12/23 04:09:28;;;;;;;9.90;9.60;;;-3.90;99.90;;;;;;5105552;28;20267;-83
2021/12/23 04:11:56;;;;;;;9.60;9.30;;;-4.00;99.90;;;;;;5104761;28;20299;-83
2021/12/23 04:14:24;;;;;;;9.73;9.43;;;-4.00;99.90;;;;;;5104130;28;20237;-84
2021/12/23 04:16:53;;;;;;;9.70;9.40;;;-4.00;99.90;;;;;;5104589;28;20259;-83
2021/12/23 04:19:20;;;;;;;9.90;9.60;;;-4.10;99.90;;;;;;5104646;28;20234;-83
2021/12/23 04:21:48;;;;;;;9.30;9.00;;;-4.20;99.90;;;;;;5105523;28;20247;-83
2021/12/23 04:24:16;;;;;;;10.00;9.70;;;-4.20;99.90;;;;;;5104983;28;20282;-84
2021/12/23 04:26:43;;;;;;;9.73;9.43;;;-4.20;99.90;;;;;;5104977;28;20294;-83
2021/12/23 04:29:11;;;;;;;9.80;9.50;;;-4.20;99.90;;;;;;5105448;28;20233;-84
2021/12/23 04:31:39;;;;;;;9.30;9.00;;;-4.20;99.90;;;;;;5104439;28;20299;-84
2021/12/23 04:34:09;;;;;;;9.60;9.30;;;-4.20;99.90;;;;;;5104694;28;20244;-83
2021/12/23 04:36:36;;;;;;;9.90;9.60;;;-4.10;99.90;;;;;;5104925;28;20238;-84
2021/12/23 04:39:05;;;;;;;9.43;9.13;;;-4.10;99.90;;;;;;5104351;28;20286;-83
2021/12/23 04:41:33;;;;;;;9.90;9.60;;;-4.10;99.90;;;;;;5106073;28;20294;-83
2021/12/23 04:44:01;;;;;;;9.47;9.17;;;-4.10;99.90;;;;;;5115142;28;20229;-83
2021/12/23 04:46:28;;;;;;;9.87;9.57;;;-4.10;99.90;;;;;;5110870;28;20237;-83
2021/12/23 04:48:56;;;;;;;9.23;8.93;;;-4.10;99.90;;;;;;5109038;28;20237;-84
2021/12/23 04:51:25;;;;;;;9.60;9.30;;;-4.20;99.90;;;;;;5106044;28;20290;-83
2021/12/23 04:53:53;;;;;;;9.60;9.30;;;-4.20;99.90;;;;;;5106385;28;20328;-84
2021/12/23 04:56:21;;;;;;;9.80;9.50;;;-4.20;99.90;;;;;;5106409;28;20234;-83
2021/12/23 04:58:49;;;;;;;9.37;9.07;;;-4.10;99.90;;;;;;5106832;28;20233;-84
2021/12/23 05:01:20;;;;;;;9.67;9.37;;;-4.10;99.90;;;;;;5116607;28;20298;-83
2021/12/23 05:03:49;;;;;;;9.90;9.60;;;-4.10;99.90;;;;;;5109253;28;20261;-83
2021/12/23 05:06:17;;;;;;;10.20;9.90;;;-4.10;99.90;;;;;;5107934;28;20226;-84
2021/12/23 05:08:46;;;;;;;9.93;9.63;;;-4.10;99.90;;;;;;5105927;28;20236;-84
2021/12/23 05:11:15;;;;;;;10.30;10.00;;;-4.10;99.90;;;;;;5105722;28;20286;-83
2021/12/23 05:13:42;;;;;;;9.97;9.67;;;-4.20;99.90;;;;;;5107542;28;20286;-83
2021/12/23 05:16:10;;;;;;;10.20;9.90;;;-4.20;99.90;;;;;;5106432;28;20233;-83
2021/12/23 05:18:38;;;;;;;10.40;10.10;;;-4.20;99.90;;;;;;5105358;28;20240;-83
2021/12/23 05:21:05;;;;;;;9.90;9.60;;;-4.30;99.90;;;;;;5104371;28;20241;-83
2021/12/23 05:23:33;;;;;;;10.40;10.10;;;-4.30;99.90;;;;;;5105245;28;20244;-84
2021/12/23 05:26:05;;;;;;;10.30;10.00;;;-4.30;99.90;;;;;;5105700;28;20233;-84
2021/12/23 05:28:37;;;;;;;9.70;9.40;;;-4.20;99.90;;;;;;5107935;28;20223;-84
2021/12/23 05:31:06;;;;;;;10.17;9.87;;;-4.20;99.90;;;;;;5106583;28;20268;-83
2021/12/23 05:33:34;;;;;;;10.20;9.90;;;-4.20;99.90;;;;;;5106435;28;20234;-84
2021/12/23 05:36:02;;;;;;;9.83;9.53;;;-4.20;99.90;;;;;;5105803;28;20264;-85
2021/12/23 05:38:30;;;;;;;10.30;10.00;;;-4.20;99.90;;;;;;5111675;28;20236;-84
2021/12/23 05:40:57;;;;;;;10.10;9.80;;;-4.10;99.90;;;;;;5109076;28;20224;-84
2021/12/23 05:43:27;;;;;;;9.90;9.60;;;-4.10;99.90;;;;;;5102489;28;20235;-84
2021/12/23 05:45:55;;;;;;;10.10;9.80;;;-4.10;99.90;;;;;;5104040;28;20236;-84
2021/12/23 05:48:22;;;;;;;10.13;9.83;;;-4.10;99.90;;;;;;5103716;28;20232;-84
2021/12/23 05:50:50;;;;;;;10.20;9.90;;;-4.10;99.90;;;;;;5103744;28;20240;-84
2021/12/23 05:53:18;;;;;;;10.00;9.70;;;-4.10;99.90;;;;;;5108067;28;20287;-84
2021/12/23 05:55:45;;;;;;;9.63;9.33;;;-4.10;99.90;;;;;;5112344;28;20294;-84
2021/12/23 05:58:13;;;;;;;10.00;9.70;;;-4.10;99.90;;;;;;5110778;28;20233;-84
2021/12/23 06:00:43;;;;;;;9.80;9.50;;;-4.00;99.90;;;;;;5111836;28;20271;-84
2021/12/23 06:03:10;;;;;;;10.00;9.70;;;-4.00;99.90;;;;;;5111373;28;20259;-84
2021/12/23 06:05:38;;;;;;;9.93;9.63;;;-4.00;99.90;;;;;;5112629;28;20254;-83
2021/12/23 06:08:06;;;;;;;9.70;9.40;;;-4.00;99.90;;;;;;5112586;28;20254;-82
2021/12/23 06:10:34;;;;;;;9.87;9.57;;;-4.00;99.90;;;;;;5107036;28;20290;-84
2021/12/23 06:13:02;;;;;;;9.70;9.40;;;-4.00;99.90;;;;;;5109964;28;20224;-83
2021/12/23 06:15:30;;;;;;;10.10;9.80;;;-4.00;99.90;;;;;;5109482;28;20743;-82
2021/12/23 06:17:59;;;;;;;9.80;9.50;;;-4.00;99.90;;;;;;5109766;28;20241;-83
2021/12/23 06:20:27;;;;;;;9.60;9.30;;;-3.90;99.90;;;;;;5108092;28;20287;-84
2021/12/23 06:22:55;;;;;;;9.73;9.43;;;-3.90;99.90;;;;;;5107509;28;20220;-83
2021/12/23 06:25:23;;;;;;;10.00;9.70;;;-3.90;99.90;;;;;;5111261;28;20229;-83
2021/12/23 06:27:50;;;;;;;10.10;9.80;;;-3.90;99.90;;;;;;5117318;28;20206;-82
2021/12/23 06:30:19;;;;;;;9.90;9.60;;;-3.90;99.90;;;;;;5116822;28;20223;-83
2021/12/23 06:32:50;;;;;;;9.93;9.63;;;-3.90;99.90;;;;;;5116891;28;20229;-83
2021/12/23 06:35:21;;;;;;;9.40;9.10;;;-3.80;99.90;;;;;;5114220;28;20237;-83
2021/12/23 06:37:48;;;;;;;9.27;8.97;;;-3.80;99.90;;;;;;5110826;28;20237;-82
2021/12/23 06:40:17;;;;;;;9.50;9.20;;;-3.80;99.90;;;;;;5109021;28;20256;-82
2021/12/23 06:42:46;;;;;;;10.00;9.70;;;-3.80;99.90;;;;;;5107672;28;20221;-85
2021/12/23 06:45:15;;;;;;;9.73;9.43;;;-3.80;99.90;;;;;;5111319;28;20241;-83
2021/12/23 06:47:45;;;;;;;9.57;9.27;;;-3.80;99.90;;;;;;5118312;28;20244;-83
2021/12/23 06:50:16;;;;;;;9.47;9.17;;;-3.90;99.90;;;;;;5118149;28;20222;-82
2021/12/23 06:52:46;;;;;;;9.70;9.40;;;-3.80;99.90;;;;;;5111229;28;20224;-82
2021/12/23 06:55:15;;;;;;;10.00;9.70;;;-3.90;99.90;;;;;;5108658;28;20237;-82
2021/12/23 06:57:43;;;;;;;10.10;9.80;;;-3.80;99.90;;;;;;5115636;28;20236;-82
2021/12/23 07:00:16;;;;;;;10.13;9.83;;;-3.80;99.90;;;;;;5110562;28;20251;-83
2021/12/23 07:02:44;;;;;;;9.73;9.43;;;-3.80;99.90;;;;;;5108420;28;20221;-83
2021/12/23 07:05:12;;;;;;;10.53;10.23;;;-3.80;99.90;;;;;;5106314;28;20260;-83
2021/12/23 07:07:53;;;;;;;10.30;10.00;;;-3.80;99.90;;;;;;5110331;28;20264;-83
2021/12/23 07:10:25;;;;;;;10.10;9.80;;;-3.80;99.90;;;;;;5107127;28;20221;-83
2021/12/23 07:12:53;;;;;;;10.30;10.00;;;-3.80;99.90;;;;;;5106200;28;20229;-82
2021/12/23 07:15:23;;;;;;;10.47;10.17;;;-3.80;99.90;;;;;;5109974;28;20263;-83
2021/12/23 07:17:51;;;;;;;10.57;10.27;;;-3.70;99.90;;;;;;5110468;28;20309;-84
2021/12/23 07:20:19;;;;;;;10.50;10.20;;;-3.70;99.90;;;;;;5108109;28;20227;-85
2021/12/23 07:22:47;;;;;;;10.77;10.47;;;-3.70;99.90;;;;;;5106290;28;20237;-84
2021/12/23 07:25:15;;;;;;;10.17;9.87;;;-3.70;99.90;;;;;;5106118;28;20240;-85
2021/12/23 07:27:45;;;;;;;10.27;9.97;;;-3.70;99.90;;;;;;5106755;28;20301;-87
2021/12/23 07:30:18;;;;;;;10.63;10.33;;;-3.60;99.90;;;;;;5103512;28;20233;-86
2021/12/23 07:32:46;;;;;;;10.37;10.07;;;-3.60;99.90;;;;;;5103865;28;20233;-86
2021/12/23 07:35:15;;;;;;;10.20;9.90;;;-3.60;99.90;;;;;;5103596;28;20274;-86
2021/12/23 07:37:48;;;;;;;10.23;9.93;;;-3.70;99.90;;;;;;5102359;28;20236;-86
2021/12/23 07:40:17;;;;;;;10.20;9.90;;;-3.60;99.90;;;;;;5103210;28;20225;-85
2021/12/23 07:42:55;;;;;;;10.43;10.13;;;-3.70;99.90;;;;;;5102386;28;20233;-86
2021/12/23 07:45:26;;;;;;;10.00;9.70;;;-3.70;99.90;;;;;;5102982;28;20236;-87
2021/12/23 07:47:54;;;;;;;10.20;9.90;;;-3.70;99.90;;;;;;5102604;28;20221;-86
2021/12/23 07:50:22;;;;;;;10.23;9.93;;;-3.70;99.90;;;;;;5101212;28;20229;-86
2021/12/23 07:52:50;;;;;;;10.50;10.20;;;-3.70;99.90;;;;;;5100625;28;20271;-87
2021/12/23 07:55:20;;;;;;;10.30;10.00;;;-3.70;99.90;;;;;;5100502;28;20291;-88
2021/12/23 07:57:50;;;;;;;10.03;9.73;;;-3.70;99.90;;;;;;5100924;28;20318;-88
2021/12/23 08:00:19;;;;;;;10.40;10.10;;;-3.60;99.90;;;;;;5100823;28;20229;-86
2021/12/23 08:02:47;;;;;;;9.87;9.57;;;-3.60;99.90;;;;;;5101513;28;20236;-85
2021/12/23 08:05:15;;;;;;;10.50;10.20;;;-3.60;99.90;;;;;;5102098;28;20234;-86
2021/12/23 08:07:43;;;;;;;10.33;10.03;;;-3.60;99.90;;;;;;5102599;28;20260;-86
2021/12/23 08:10:11;;;;;;;10.60;10.30;;;-3.60;99.90;;;;;;5102775;28;20229;-85
2021/12/23 08:12:58;;;;;;;10.30;10.00;;;-3.60;99.90;;;;;;5099146;28;20233;-90
2021/12/23 08:15:28;;;;;;;10.47;10.17;;;-3.60;99.90;;;;;;5101515;28;20245;-87
2021/12/23 08:17:56;;;;;;;10.50;10.20;;;-3.50;99.90;;;;;;5100861;28;20286;-88
2021/12/23 08:20:24;;;;;;;10.47;10.17;;;-3.50;99.90;;;;;;5082024;28;20225;-87
2021/12/23 08:22:52;;;;;;;10.30;10.00;;;-3.60;99.90;;;;;;5101048;28;20256;-88
2021/12/23 08:25:20;;;;;;;10.27;9.97;;;-3.60;99.90;;;;;;5130452;22;20276;-78
2021/12/23 08:27:49;;;;;;;10.43;10.13;;;-3.60;99.90;;;;;;5122468;27;20236;-79
2021/12/23 08:30:19;;;;;;;10.30;10.00;;;-3.60;99.90;;;;;;5124681;27;20294;-78
2021/12/23 08:32:47;;;;;;;10.10;9.80;;;-3.60;99.90;;;;;;5124606;28;20290;-79
2021/12/23 08:35:17;;;;;;;10.40;10.10;;;-3.60;99.90;;;;;;5114763;28;20241;-79
2021/12/23 08:37:48;;;;;;;9.73;9.43;;;-3.50;99.90;;;;;;5102882;28;20284;-84
2021/12/23 08:40:30;;;;;;;10.17;9.87;;;-3.50;99.90;;;;;;5103814;28;20237;-88
2021/12/23 08:43:07;;;;;;;10.13;9.83;;;-3.30;99.90;;;;;;5106283;28;20229;-81
2021/12/23 08:45:39;;;;;;;10.20;9.90;;;-3.30;99.90;;;;;;5102909;28;20241;-80
2021/12/23 08:48:08;;;;;;;10.17;9.87;;;-3.40;99.90;;;;;;5104473;28;20318;-80
2021/12/23 08:50:36;;;;;;;9.83;9.53;;;-3.40;99.90;;;;;;5102822;28;20234;-80
2021/12/23 08:53:04;;;;;;;9.77;9.47;;;-3.40;99.90;;;;;;5101297;28;20213;-80
2021/12/23 08:55:33;;;;;;;10.07;9.77;;;-3.40;99.90;;;;;;5091664;28;20233;-79
2021/12/23 08:58:07;;;;;;;10.37;10.07;;;-3.40;99.90;;;;;;5097759;28;20239;-80
2021/12/23 09:00:37;;;;;;;10.00;9.70;;;-3.40;99.90;;;;;;5089523;28;20229;-80
2021/12/23 09:03:09;;;;;;;10.17;9.87;;;-3.30;99.90;;;;;;5085700;28;20236;-80
2021/12/23 09:05:41;;;;;;;9.93;9.63;;;-3.30;99.90;;;;;;5099853;28;20233;-81
2021/12/23 09:08:09;;;;;;;10.30;10.00;;;-3.20;99.90;;;;;;5090831;28;20313;-82
2021/12/23 09:10:39;;;;;;;10.37;10.07;;;-3.20;99.90;;;;;;5079953;28;20215;-81
2021/12/23 09:13:11;;;;;;;9.80;9.50;;;-3.10;99.90;;;;;;5079815;28;20234;-79
2021/12/23 09:15:39;;;;;;;9.77;9.47;;;-3.10;99.90;;;;;;5078947;28;20295;-79
2021/12/23 09:18:07;;;;;;;9.80;9.50;;;-3.00;99.90;;;;;;5079800;28;20226;-82
2021/12/23 09:20:36;;;;;;;10.17;9.87;;;-3.00;99.90;;;;;;5080566;28;20234;-81
2021/12/23 09:23:07;;;;;;;9.80;9.50;;;-2.90;99.90;;;;;;5084564;28;20237;-81
2021/12/23 09:25:35;;;;;;;9.40;9.10;;;-3.00;99.90;;;;;;5081141;28;20280;-80
2021/12/23 09:28:11;;;;;;;9.40;9.10;;;-2.90;99.90;;;;;;5082421;28;20234;-81
2021/12/23 09:33:29;;;;;;;9.50;9.20;;;-2.80;99.90;;;;;;5081975;28;20359;-82
2021/12/23 09:35:58;;;;;;;9.33;9.03;;;-2.80;99.90;;;;;;5082229;28;20234;-83
2021/12/23 09:38:58;;;;;;;9.53;9.23;;;-2.80;99.90;;;;;;5082037;28;20249;-84
2021/12/23 09:41:32;;;;;;;9.67;9.37;;;-2.70;99.90;;;;;;5078445;28;20384;-84
2021/12/23 09:44:02;;;;;;;9.07;8.77;;;-2.70;99.90;;;;;;5079705;28;20221;-82
2021/12/23 09:46:34;;;;;;;9.60;9.30;;;-2.60;99.90;;;;;;5079536;28;20242;-84
2021/12/23 09:49:23;;;;;;;9.70;9.40;;;-2.50;99.90;;;;;;5080619;28;20230;-85
2021/12/23 09:51:52;;;;;;;9.30;9.00;;;-2.50;99.90;;;;;;5094178;28;20294;-83
2021/12/23 09:54:25;;;;;;;9.73;9.43;;;-2.50;99.90;;;;;;5091166;28;20226;-84
2021/12/23 09:56:55;;;;;;;9.70;9.40;;;-2.50;99.90;;;;;;5096080;28;20291;-81
2021/12/23 09:59:28;;;;;;;8.97;8.73;;;-2.40;99.90;;;;;;5097361;28;20233;-82
2021/12/23 10:02:02;;;;;;;9.27;8.97;;;-2.40;99.90;;;;;;5100314;28;20229;-80
2021/12/23 10:04:33;;;;;;;9.23;8.93;;;-2.40;99.90;;;;;;5099800;28;20293;-80
2021/12/23 10:07:01;;;;;;;8.80;8.60;;;-2.30;99.90;;;;;;5098769;28;20264;-83
2021/12/23 10:09:41;;;;;;;9.30;9.00;;;-2.30;99.90;;;;;;5099547;28;20240;-80
2021/12/23 10:31:59;;;;;;;9.33;9.03;;;-1.80;99.90;;;;;;5083191;28;20222;-82
2021/12/23 10:37:24;;;;;;;9.53;9.23;;;-1.70;99.90;;;;;;5100889;28;20201;-83
2021/12/23 10:39:56;;;;;;;9.60;9.30;;;-1.80;99.90;;;;;;5102656;28;20251;-84
2021/12/23 10:42:33;;;;;;;9.53;9.23;;;-1.70;99.90;;;;;;5112616;28;20217;-81
2021/12/23 10:45:27;;;;;;;9.80;9.50;;;-1.70;99.90;;;;;;5116832;28;20219;-84
2021/12/23 10:48:02;;;;;;;9.33;9.03;;;-1.70;99.90;;;;;;5117527;28;20213;-83
2021/12/23 10:50:39;;;;;;;10.10;9.80;;;-1.70;99.90;;;;;;5120545;28;20237;-83
2021/12/23 10:53:28;;;;;;;9.80;9.50;;;-1.70;99.90;;;;;;5120292;28;20239;-81
2021/12/23 10:59:12;;;;;;;9.90;9.60;;;-1.50;99.90;;;;;;5121046;28;20217;-83
2021/12/23 11:02:21;;;;;;;9.87;9.57;;;-1.50;99.90;;;;;;5120017;28;20214;-81
2021/12/23 11:05:13;;;;;;;9.50;9.20;;;-1.50;99.90;;;;;;5098180;28;20217;-83
2021/12/23 11:08:05;;;;;;;9.40;9.10;;;-1.40;99.90;;;;;;5119753;28;20231;-81
2021/12/23 11:10:55;;;;;;;9.50;9.20;;;-1.40;99.90;;;;;;5115636;28;20214;-82
2021/12/23 11:36:21;;;;;;;9.50;9.20;;;-1.00;99.90;;;;;;5104029;28;20237;-83
2021/12/23 11:39:08;;;;;;;9.70;9.40;;;-1.00;99.90;;;;;;5104312;28;20234;-84
2021/12/23 11:41:49;;;;;;;9.50;9.20;;;-1.00;99.90;;;;;;5105341;28;20233;-84
2021/12/23 11:44:17;;;;;;;9.67;9.37;;;-0.90;99.90;;;;;;5102779;28;20278;-81
2021/12/23 11:46:50;;;;;;;9.17;8.87;;;-0.80;99.90;;;;;;5102926;28;20237;-82
2021/12/23 11:49:18;;;;;;;8.80;8.60;;;-0.70;99.90;;;;;;5100488;28;20290;-81
2021/12/23 11:51:53;;;;;;;8.80;8.60;;;-0.60;99.90;;;;;;5100511;28;20228;-81
2021/12/23 11:54:26;;;;;;;8.50;8.30;;;-0.50;99.90;;;;;;5100802;28;20231;-81
2021/12/23 11:57:02;;;;;;;8.60;8.40;;;-0.50;99.90;;;;;;5102022;28;20240;-81
2021/12/23 11:59:31;;;;;;;8.57;8.37;;;-0.40;99.90;;;;;;5099796;28;20233;-82
2021/12/23 12:02:00;;;;;;;8.40;8.20;;;-0.40;99.90;;;;;;5102323;28;20269;-82
2021/12/23 12:04:38;;;;;;;8.70;8.50;;;-0.30;99.90;;;;;;5102757;28;20236;-83
2021/12/23 12:07:28;;;;;;;8.50;8.30;;;-0.30;99.90;;;;;;5103028;28;20248;-81
2021/12/23 12:09:59;;;;;;;8.60;8.40;;;-0.20;99.90;;;;;;5108491;28;20231;-81
2021/12/23 12:12:30;;;;;;;8.60;8.40;;;-0.20;99.90;;;;;;5104078;28;20275;-81
2021/12/23 12:14:58;;;;;;;8.70;8.50;;;-0.10;99.90;;;;;;5105457;28;20278;-81
2021/12/23 12:17:43;;;;;;;8.67;8.47;;;-0.10;99.90;;;;;;5120107;28;20243;-82
2021/12/23 12:20:34;;;;;;;9.07;8.77;;;0.00;99.90;;;;;;5121455;28;20247;-82
2021/12/23 12:23:11;;;;;;;8.70;8.50;;;0.00;99.90;;;;;;5121407;28;20244;-80
2021/12/23 12:26:05;;;;;;;8.80;8.60;;;0.10;99.90;;;;;;5121194;28;20240;-83
2021/12/23 12:28:44;;;;;;;8.70;8.50;;;0.10;99.90;;;;;;5121745;28;20238;-81
2021/12/23 12:31:18;;;;;;;8.43;8.23;;;0.20;99.90;;;;;;5121843;28;20213;-80
2021/12/23 12:36:58;;;;;;;8.67;8.47;;;0.30;99.90;;;;;;5118399;28;20220;-81
2021/12/23 12:39:33;;;;;;;8.80;8.60;;;0.30;99.90;;;;;;5118224;28;20233;-82
2021/12/23 12:42:06;;;;;;;9.17;8.87;;;0.30;99.90;;;;;;5116402;28;20239;-83
2021/12/23 12:44:53;;;;;;;8.97;8.70;;;0.40;99.90;;;;;;5117194;28;20214;-85
2021/12/23 12:47:33;;;;;;;8.90;8.67;;;0.50;99.90;;;;;;5111995;28;20221;-82
2021/12/23 12:50:13;;;;;;;8.80;8.60;;;0.60;99.90;;;;;;5108099;28;20279;-83
2021/12/23 12:52:44;;;;;;;8.70;8.50;;;0.60;99.90;;;;;;5108583;28;20260;-84
2021/12/23 12:55:15;;;;;;;8.87;8.67;;;0.60;99.90;;;;;;5108520;28;20250;-83
2021/12/23 12:57:49;;;;;;;8.80;8.60;;;0.60;99.90;;;;;;5107096;28;20217;-81
2021/12/23 13:00:36;;;;;;;8.43;8.23;;;0.60;99.90;;;;;;5086727;28;20237;-83
2021/12/23 13:03:17;;;;;;;8.83;8.63;;;0.60;99.90;;;;;;5088402;28;20233;-83
2021/12/23 13:05:49;;;;;;;8.67;8.47;;;0.60;99.90;;;;;;5085607;28;20391;-84
2021/12/23 13:08:23;;;;;;;9.13;8.83;;;0.60;99.90;;;;;;5091483;28;20221;-83
2021/12/23 13:10:51;;;;;;;8.63;8.43;;;0.60;99.90;;;;;;5103847;28;20232;-83
2021/12/23 13:13:32;;;;;;;8.70;8.50;;;0.60;99.90;;;;;;5102066;28;20247;-83
2021/12/23 13:16:11;;;;;;;8.80;8.60;;;0.50;99.90;;;;;;5100344;28;20249;-84
2021/12/23 13:18:39;;;;;;;8.77;8.57;;;0.60;99.90;;;;;;5103164;28;20229;-84
2021/12/23 13:21:08;;;;;;;8.67;8.47;;;0.60;99.90;;;;;;5107607;28;20240;-82
2021/12/23 13:23:40;;;;;;;8.50;8.30;;;0.60;99.90;;;;;;5105542;28;20235;-83
2021/12/23 13:26:12;;;;;;;8.80;8.60;;;0.60;99.90;;;;;;5106584;28;20294;-82
2021/12/23 13:28:45;;;;;;;8.33;8.13;;;0.60;99.90;;;;;;5106173;28;20286;-82
2021/12/23 13:31:21;;;;;;;8.60;8.40;;;0.60;99.90;;;;;;5102463;28;20247;-83
2021/12/23 13:33:53;;;;;;;8.70;8.50;;;0.60;99.90;;;;;;5102016;28;20247;-81
2021/12/23 13:36:24;;;;;;;8.70;8.50;;;0.60;99.90;;;;;;5099492;28;20238;-82
2021/12/23 13:38:59;;;;;;;8.60;8.40;;;0.60;99.90;;;;;;5100083;28;20222;-83
2021/12/23 13:41:36;;;;;;;8.30;8.10;;;0.60;99.90;;;;;;5100983;28;20326;-86
2021/12/23 13:44:21;;;;;;;8.80;8.60;;;0.60;99.90;;;;;;5100954;28;20335;-86
2021/12/23 13:47:09;;;;;;;8.90;8.70;;;0.70;99.90;;;;;;5100425;28;20221;-83
2021/12/23 13:49:41;;;;;;;8.67;8.47;;;0.80;99.90;;;;;;5099311;28;20222;-83
2021/12/23 13:52:23;;;;;;;8.97;8.73;;;0.80;99.90;;;;;;5102856;28;20257;-86
2021/12/23 13:54:56;;;;;;;8.60;8.40;;;0.80;99.90;;;;;;5099016;28;20233;-83
2021/12/23 13:57:25;;;;;;;8.90;8.70;;;0.80;99.90;;;;;;5099943;28;20234;-83
2021/12/23 13:59:53;;;;;;;8.80;8.60;;;0.80;99.90;;;;;;5099614;28;20217;-83
2021/12/23 14:02:25;;;;;;;8.77;8.57;;;0.80;99.90;;;;;;5099456;28;20320;-84
2021/12/23 14:05:02;;;;;;;8.93;8.73;;;0.80;99.90;;;;;;5098404;28;20298;-83